Time;durP1;ratioP1;P1;durP2;ratioP2;P2;SDS_P1;SDS_P2;PMS_P1;PMS_P2;Temp;Humidity;BMP_temperature;BMP_pressure;BME280_temperature;BME280_humidity;BME280_pressure;Samples;Min_cycle;Max_cycle;Signal;HPM_P1;HPM_P2
2024/02/06 00:02:16;;;;;;;5.30;1.70;;;;;;;1.07;71.08;98082.74;107284;1258;67122;-39
2024/02/06 00:04:44;;;;;;;6.70;2.00;;;;;;;1.01;71.39;98081.25;107293;1254;72448;-39
2024/02/06 00:07:12;;;;;;;7.30;1.50;;;;;;;0.94;71.66;98082.52;107329;1256;60457;-39
2024/02/06 00:09:54;;;;;;;7.30;1.90;;;;;;;0.86;72.08;98089.80;107364;1253;60283;-40
2024/02/06 00:12:24;;;;;;;12.60;1.90;;;;;;;0.84;72.38;98089.36;107535;1253;73831;-40
2024/02/06 00:14:53;;;;;;;4.60;2.10;;;;;;;0.84;72.67;98091.55;107316;1253;68457;-40
2024/02/06 00:17:21;;;;;;;10.50;2.50;;;;;;;0.80;72.97;98087.67;107315;1255;71366;-40
2024/02/06 00:19:48;;;;;;;12.90;2.30;;;;;;;0.75;73.16;98085.52;107273;1253;60555;-40
2024/02/06 00:22:16;;;;;;;7.30;2.00;;;;;;;0.70;73.13;98082.13;107365;1253;59454;-39
2024/02/06 00:24:44;;;;;;;4.60;1.60;;;;;;;0.61;73.61;98071.95;107371;1253;72549;-39
2024/02/06 00:27:11;;;;;;;5.60;2.00;;;;;;;0.67;73.59;98081.87;107308;1253;67614;-39
2024/02/06 00:29:39;;;;;;;5.60;1.80;;;;;;;0.72;73.77;98082.20;107273;1255;71506;-40
2024/02/06 00:32:06;;;;;;;5.10;1.80;;;;;;;0.73;73.85;98078.34;107552;1253;59461;-40
2024/02/06 00:34:34;;;;;;;5.60;2.10;;;;;;;0.70;73.87;98081.51;107324;1253;60616;-39
2024/02/06 00:37:02;;;;;;;7.40;2.20;;;;;;;0.66;74.04;98081.66;107359;1253;73933;-40
2024/02/06 00:39:30;;;;;;;7.30;2.50;;;;;;;0.65;74.08;98083.52;107325;1253;68392;-40
2024/02/06 00:41:58;;;;;;;6.50;2.00;;;;;;;0.64;74.05;98079.54;107404;1253;72437;-39
2024/02/06 00:44:25;;;;;;;4.50;1.80;;;;;;;0.68;73.93;98069.46;107393;1253;60585;-39
2024/02/06 00:46:53;;;;;;;6.60;2.10;;;;;;;0.71;73.80;98067.55;107395;1253;60070;-40
2024/02/06 00:49:21;;;;;;;5.10;1.60;;;;;;;0.68;74.00;98066.58;107379;1253;72706;-39
2024/02/06 00:51:49;;;;;;;9.30;2.30;;;;;;;0.67;74.00;98070.81;107414;1253;67447;-39
2024/02/06 00:54:16;;;;;;;6.10;2.00;;;;;;;0.66;74.04;98073.29;107598;1254;72678;-40
2024/02/06 00:56:44;;;;;;;7.10;2.00;;;;;;;0.65;73.87;98074.92;107633;1251;60827;-40
2024/02/06 00:59:11;;;;;;;4.70;1.90;;;;;;;0.69;74.01;98074.10;107621;1251;60325;-40
2024/02/06 01:01:39;;;;;;;8.60;1.90;;;;;;;0.74;73.65;98070.30;107644;1258;72652;-40
2024/02/06 01:04:06;;;;;;;4.90;1.90;;;;;;;0.74;73.75;98067.95;107643;1252;68395;-40
2024/02/06 01:06:34;;;;;;;9.20;2.10;;;;;;;0.70;73.55;98062.84;107427;1253;72429;-40
2024/02/06 01:09:02;;;;;;;10.50;2.50;;;;;;;0.68;73.61;98061.70;107400;1253;60819;-40
2024/02/06 01:11:30;;;;;;;6.70;1.90;;;;;;;0.66;73.61;98062.75;107318;1252;60294;-40
2024/02/06 01:13:57;;;;;;;5.20;2.30;;;;;;;0.69;73.72;98066.91;107287;1253;72645;-40
2024/02/06 01:16:25;;;;;;;6.60;2.20;;;;;;;0.73;73.46;98065.47;107319;1253;67100;-40
2024/02/06 01:18:52;;;;;;;9.70;2.50;;;;;;;0.74;73.55;98063.67;107335;1254;71408;-40
2024/02/06 01:21:20;;;;;;;9.90;2.50;;;;;;;0.74;73.18;98058.16;107363;1258;60507;-39
2024/02/06 01:23:47;;;;;;;6.10;2.20;;;;;;;0.73;73.21;98057.07;107400;1259;61846;-40
2024/02/06 01:26:15;;;;;;;8.10;2.40;;;;;;;0.71;73.24;98059.85;107353;1253;73884;-39
2024/02/06 01:28:42;;;;;;;6.10;1.80;;;;;;;0.75;73.11;98060.81;107403;1253;67137;-39
2024/02/06 01:31:12;;;;;;;6.00;1.90;;;;;;;0.80;72.83;98063.98;107427;1254;72650;-40
2024/02/06 01:33:40;;;;;;;6.10;1.80;;;;;;;0.81;73.00;98058.73;107464;1256;60543;-40
2024/02/06 01:36:07;;;;;;;7.40;1.90;;;;;;;0.80;72.67;98057.80;107391;1253;60435;-39
2024/02/06 01:38:35;;;;;;;11.20;2.60;;;;;;;0.79;72.49;98054.41;106668;1253;1003305;-39
2024/02/06 01:41:03;;;;;;;8.60;2.10;;;;;;;0.79;72.35;98057.30;107365;1253;68324;-40
2024/02/06 01:43:31;;;;;;;10.30;1.90;;;;;;;0.82;72.42;98058.91;107349;1253;72793;-39
2024/02/06 01:45:59;;;;;;;6.70;1.90;;;;;;;0.88;71.99;98060.15;107335;1259;60860;-39
2024/02/06 01:48:27;;;;;;;6.70;2.30;;;;;;;0.91;72.04;98059.18;107357;1258;59913;-40
2024/02/06 01:50:55;;;;;;;8.40;2.00;;;;;;;0.90;72.17;98058.81;107304;1253;73815;-39
2024/02/06 01:53:22;;;;;;;9.30;2.00;;;;;;;0.88;71.88;98052.35;107324;1253;67471;-39
2024/02/06 01:55:50;;;;;;;9.20;2.20;;;;;;;0.88;72.01;98054.03;107364;1254;71487;-39
2024/02/06 01:58:17;;;;;;;6.10;1.80;;;;;;;0.85;71.66;98057.01;107333;1258;60230;-40
2024/02/06 02:00:45;;;;;;;7.60;1.50;;;;;;;0.90;71.52;98062.95;107368;1258;60297;-39
2024/02/06 02:03:14;;;;;;;4.50;1.50;;;;;;;0.97;71.27;98069.98;107430;1254;73970;-39
2024/02/06 02:05:44;;;;;;;6.30;1.70;;;;;;;0.98;71.23;98071.82;107329;1253;67445;-40
2024/02/06 02:08:12;;;;;;;5.80;1.70;;;;;;;0.97;70.80;98067.77;107400;1256;72968;-39
2024/02/06 02:10:40;;;;;;;8.70;1.90;;;;;;;0.97;71.04;98071.88;107302;1259;60444;-39
2024/02/06 02:13:07;;;;;;;6.90;1.80;;;;;;;0.96;70.70;98080.98;106642;1254;1003690;-39
2024/02/06 02:15:35;;;;;;;8.90;2.10;;;;;;;0.95;70.52;98083.63;107544;1254;73830;-40
2024/02/06 02:18:03;;;;;;;6.90;2.10;;;;;;;1.00;70.26;98083.64;107369;1259;68904;-39
2024/02/06 02:20:31;;;;;;;6.00;1.90;;;;;;;1.05;70.00;98081.48;107424;1258;72333;-39
2024/02/06 02:22:58;;;;;;;7.50;1.80;;;;;;;1.05;69.79;98080.66;107386;1254;59615;-40
2024/02/06 02:25:26;;;;;;;9.70;2.10;;;;;;;1.04;69.92;98078.16;107284;1258;60336;-40
2024/02/06 02:27:54;;;;;;;6.70;1.80;;;;;;;1.03;70.00;98086.13;107399;1253;73772;-39
2024/02/06 02:30:21;;;;;;;7.70;1.70;;;;;;;1.01;70.26;98086.90;107354;1255;67406;-39
2024/02/06 02:32:54;;;;;;;7.10;1.70;;;;;;;1.01;70.53;98088.41;107312;1255;72457;-40
2024/02/06 02:35:29;;;;;;;6.00;1.90;;;;;;;0.99;70.55;98073.73;107268;1255;60857;-39
2024/02/06 02:37:57;;;;;;;7.50;1.80;;;;;;;1.08;70.69;98084.64;107281;1258;60093;-39
2024/02/06 02:40:24;;;;;;;6.70;2.00;;;;;;;1.07;70.85;98085.44;107263;1259;73803;-40
2024/02/06 02:42:52;;;;;;;9.10;1.90;;;;;;;1.05;70.86;98082.00;105789;1254;1003631;-39
2024/02/06 02:45:20;;;;;;;7.30;2.00;;;;;;;1.03;70.73;98081.79;107312;1260;72672;-39
2024/02/06 02:47:47;;;;;;;6.70;2.20;;;;;;;1.01;70.63;98080.50;107406;1254;60322;-39
2024/02/06 02:50:15;;;;;;;8.80;1.90;;;;;;;1.03;70.53;98078.51;107428;1254;60445;-39
2024/02/06 02:52:43;;;;;;;6.40;1.80;;;;;;;1.09;70.42;98077.94;107376;1258;73850;-39
2024/02/06 02:55:11;;;;;;;9.30;2.10;;;;;;;1.09;70.33;98081.34;107425;1255;68929;-39
2024/02/06 02:57:38;;;;;;;5.80;1.90;;;;;;;1.08;70.44;98077.06;107380;1258;71414;-40
2024/02/06 03:00:06;;;;;;;6.30;2.10;;;;;;;1.07;70.14;98073.53;107303;1256;60434;-40
2024/02/06 03:02:36;;;;;;;6.50;1.90;;;;;;;1.06;70.07;98075.58;107392;1259;60453;-40
2024/02/06 03:05:05;;;;;;;6.70;1.60;;;;;;;1.05;69.49;98075.16;107486;1259;76025;-39
2024/02/06 03:07:32;;;;;;;6.60;1.40;;;;;;;1.06;69.28;98071.98;107441;1259;68341;-40
2024/02/06 03:10:00;;;;;;;4.80;1.60;;;;;;;1.12;69.04;98070.91;107439;1257;71405;-39
2024/02/06 03:12:31;;;;;;;7.50;1.70;;;;;;;1.17;68.79;98071.59;107433;1254;60516;-39
2024/02/06 03:15:00;;;;;;;9.20;2.00;;;;;;;1.15;68.86;98067.36;107446;1258;60284;-40
2024/02/06 03:17:27;;;;;;;5.80;1.60;;;;;;;1.14;68.71;98068.54;107497;1254;73850;-40
2024/02/06 03:19:55;;;;;;;8.90;2.10;;;;;;;1.14;68.42;98075.70;107419;1259;67164;-39
2024/02/06 03:22:24;;;;;;;10.50;2.10;;;;;;;1.13;68.40;98076.17;107455;1258;71431;-39
2024/02/06 03:24:51;;;;;;;9.00;2.00;;;;;;;1.12;68.38;98076.16;107453;1259;60231;-40
2024/02/06 03:27:19;;;;;;;5.10;1.90;;;;;;;1.12;68.45;98070.91;107386;1255;60557;-40
2024/02/06 03:29:47;;;;;;;4.40;1.70;;;;;;;1.18;68.59;98073.63;107404;1260;73838;-39
2024/02/06 03:32:14;;;;;;;8.20;2.20;;;;;;;1.22;68.54;98081.86;107405;1259;68703;-40
2024/02/06 03:34:42;;;;;;;8.10;2.00;;;;;;;1.22;68.43;98081.00;107421;1254;71476;-40
2024/02/06 03:37:09;;;;;;;6.00;1.90;;;;;;;1.20;68.42;98079.66;107391;1257;61122;-39
2024/02/06 03:39:37;;;;;;;10.40;2.20;;;;;;;1.20;68.43;98083.93;107406;1258;60387;-40
2024/02/06 03:42:05;;;;;;;9.80;1.90;;;;;;;1.18;68.73;98081.32;107405;1254;73688;-39
2024/02/06 03:44:32;;;;;;;8.20;1.80;;;;;;;1.18;68.67;98085.36;107417;1258;68392;-40
2024/02/06 03:47:00;;;;;;;5.10;1.70;;;;;;;1.22;68.81;98087.34;107434;1257;72494;-39
2024/02/06 03:49:27;;;;;;;8.20;1.60;;;;;;;1.26;68.64;98078.70;107411;1257;59703;-39
2024/02/06 03:51:55;;;;;;;9.00;1.90;;;;;;;1.26;68.90;98071.98;107513;1253;60528;-40
2024/02/06 03:54:23;;;;;;;7.70;1.70;;;;;;;1.24;69.03;98071.70;107408;1254;73883;-40
2024/02/06 03:56:51;;;;;;;6.50;1.70;;;;;;;1.23;69.51;98071.06;107463;1254;67564;-40
2024/02/06 03:59:19;;;;;;;7.90;1.90;;;;;;;1.20;69.80;98065.16;107343;1258;70589;-39
2024/02/06 04:01:47;;;;;;;7.50;1.80;;;;;;;1.19;70.04;98068.77;107275;1255;60086;-40
2024/02/06 04:04:15;;;;;;;7.50;2.00;;;;;;;1.22;70.54;98071.41;107345;1267;60528;-40
2024/02/06 04:06:43;;;;;;;6.90;2.50;;;;;;;1.27;70.28;98074.77;107301;1258;73836;-40
2024/02/06 04:09:11;;;;;;;7.60;1.80;;;;;;;1.25;70.53;98070.91;107548;1257;68389;-40
2024/02/06 04:11:38;;;;;;;8.60;2.00;;;;;;;1.23;70.82;98070.67;107307;1257;72459;-39
2024/02/06 04:14:06;;;;;;;7.60;2.40;;;;;;;1.21;71.19;98066.46;107327;1257;60403;-39
2024/02/06 04:16:33;;;;;;;9.60;2.70;;;;;;;1.17;71.40;98064.35;107517;1253;60448;-39
2024/02/06 04:19:01;;;;;;;8.70;1.90;;;;;;;1.19;71.41;98068.45;107386;1254;72550;-39
2024/02/06 04:21:29;;;;;;;7.00;1.80;;;;;;;1.25;71.43;98070.42;107405;1254;68628;-39
2024/02/06 04:23:57;;;;;;;7.80;2.20;;;;;;;1.28;71.60;98071.60;107414;1254;72694;-39
2024/02/06 04:26:24;;;;;;;9.30;2.20;;;;;;;1.27;71.87;98071.27;107310;1254;60236;-40
2024/02/06 04:28:52;;;;;;;11.50;3.30;;;;;;;1.24;71.92;98072.55;107363;1257;60322;-40
2024/02/06 04:31:19;;;;;;;9.90;2.80;;;;;;;1.23;72.38;98072.25;107240;1254;73796;-39
2024/02/06 04:33:47;;;;;;;9.10;2.10;;;;;;;1.21;72.24;98070.45;107454;1257;67542;-39
2024/02/06 04:36:15;;;;;;;9.80;2.30;;;;;;;1.26;72.30;98077.59;107380;1259;71395;-40
2024/02/06 04:38:42;;;;;;;8.80;2.40;;;;;;;1.24;72.32;98070.09;107425;1255;60428;-39
2024/02/06 04:41:09;;;;;;;8.60;2.20;;;;;;;1.28;72.55;98076.81;107413;1254;60285;-39
2024/02/06 04:43:37;;;;;;;13.00;2.20;;;;;;;1.27;72.89;98074.90;107390;1254;73811;-39
2024/02/06 04:46:05;;;;;;;5.30;1.80;;;;;;;1.25;72.66;98083.33;107421;1254;68380;-40
2024/02/06 04:48:32;;;;;;;7.60;2.20;;;;;;;1.25;72.95;98086.90;107387;1254;72665;-40
2024/02/06 04:51:00;;;;;;;6.40;2.10;;;;;;;1.31;72.95;98089.86;107583;1254;62912;-40
2024/02/06 04:53:30;;;;;;;8.20;2.10;;;;;;;1.36;72.81;98088.86;107434;1254;60290;-40
2024/02/06 04:55:59;;;;;;;8.00;2.50;;;;;;;1.35;73.08;98092.34;107440;1259;73866;-40
2024/02/06 04:58:27;;;;;;;7.90;1.80;;;;;;;1.31;73.40;98089.48;107472;1254;67112;-40
2024/02/06 05:00:55;;;;;;;9.70;2.00;;;;;;;1.31;73.66;98093.52;107485;1258;72745;-40
2024/02/06 05:03:22;;;;;;;9.90;1.90;;;;;;;1.31;73.81;98088.64;107284;1257;60894;-39
2024/02/06 05:05:50;;;;;;;9.30;1.90;;;;;;;1.38;73.92;98091.98;107444;1258;60522;-39
2024/02/06 05:08:17;;;;;;;6.90;2.20;;;;;;;1.42;73.87;98090.75;107455;1254;73838;-40
2024/02/06 05:10:47;;;;;;;7.60;2.20;;;;;;;1.40;74.33;98093.73;107434;1259;68330;-40
2024/02/06 05:13:15;;;;;;;10.10;1.90;;;;;;;1.35;74.65;98091.36;107329;1254;72453;-39
2024/02/06 05:15:42;;;;;;;8.10;1.90;;;;;;;1.30;75.21;98098.38;107303;1254;60340;-40
2024/02/06 05:18:10;;;;;;;8.10;2.00;;;;;;;1.29;75.34;98100.46;107375;1254;60454;-40
2024/02/06 05:20:38;;;;;;;9.60;2.30;;;;;;;1.33;75.62;98105.79;107317;1257;73828;-39
2024/02/06 05:23:05;;;;;;;9.20;2.20;;;;;;;1.33;75.85;98107.15;107455;1254;67679;-39
2024/02/06 05:25:33;;;;;;;7.30;2.20;;;;;;;1.29;76.32;98102.94;107443;1254;72667;-39
2024/02/06 05:28:00;;;;;;;7.60;2.30;;;;;;;1.27;76.70;98101.77;107422;1254;60515;-39
2024/02/06 05:30:28;;;;;;;9.40;1.90;;;;;;;1.25;76.91;98101.63;107459;1259;60394;-39
2024/02/06 05:32:56;;;;;;;9.80;2.10;;;;;;;1.28;77.31;98101.38;107451;1254;71889;-40
2024/02/06 05:35:24;;;;;;;7.50;2.00;;;;;;;1.33;77.50;98100.45;107461;1254;67224;-39
2024/02/06 05:37:51;;;;;;;7.50;2.20;;;;;;;1.32;77.88;98099.65;107448;1257;71476;-39
2024/02/06 05:40:19;;;;;;;8.50;2.50;;;;;;;1.28;78.40;98100.16;107479;1254;60322;-39
2024/02/06 05:42:47;;;;;;;7.80;2.20;;;;;;;1.25;78.78;98100.88;107432;1253;60377;-40
2024/02/06 05:45:14;;;;;;;9.00;2.30;;;;;;;1.25;79.23;98097.83;107452;1254;73842;-39
2024/02/06 05:47:42;;;;;;;8.00;2.60;;;;;;;1.31;79.32;98100.77;107486;1254;68659;-39
2024/02/06 05:50:10;;;;;;;9.40;2.80;;;;;;;1.33;79.78;98100.73;107498;1254;72645;-40
2024/02/06 05:52:38;;;;;;;8.40;2.30;;;;;;;1.30;80.20;98102.10;107524;1254;60564;-40
2024/02/06 05:55:07;;;;;;;8.10;2.20;;;;;;;1.27;80.57;98100.16;107320;1253;216024;-39
2024/02/06 05:59:54;;;;;;;8.80;2.70;;;;;;;1.34;80.99;98103.84;104225;1292;600899;-39
2024/02/06 06:02:22;;;;;;;12.30;3.40;;;;;;;1.40;81.06;98104.44;105858;1267;1003826;-39
2024/02/06 06:04:49;;;;;;;5.80;2.50;;;;;;;1.42;81.47;98106.98;106635;1268;60008;-40
2024/02/06 06:07:17;;;;;;;7.30;3.00;;;;;;;1.38;81.73;98109.70;106737;1265;71976;-39
2024/02/06 06:09:45;;;;;;;11.40;2.70;;;;;;;1.34;82.32;98107.71;106706;1266;68854;-39
2024/02/06 06:12:12;;;;;;;9.40;3.20;;;;;;;1.33;82.67;98109.00;106713;1267;71487;-39
2024/02/06 06:14:40;;;;;;;8.10;2.40;;;;;;;1.41;82.69;98110.40;107074;1257;177730;-39
2024/02/06 06:17:07;;;;;;;7.00;2.20;;;;;;;1.43;82.89;98111.16;107257;1256;60470;-39
2024/02/06 06:19:35;;;;;;;10.30;2.30;;;;;;;1.41;83.10;98111.48;107212;1257;72440;-39
2024/02/06 06:22:06;;;;;;;6.30;2.20;;;;;;;1.40;83.45;98110.83;107414;1254;67112;-39
2024/02/06 06:24:34;;;;;;;5.70;1.90;;;;;;;1.38;83.72;98115.73;107323;1254;72518;-39
2024/02/06 06:27:02;;;;;;;8.60;2.30;;;;;;;1.44;83.76;98119.35;107259;1257;59768;-39
2024/02/06 06:29:29;;;;;;;6.40;2.20;;;;;;;1.53;83.68;98127.84;107324;1254;60062;-39
2024/02/06 06:31:56;;;;;;;7.60;2.10;;;;;;;1.57;84.00;98129.36;107387;1255;73079;-39
2024/02/06 06:34:24;;;;;;;8.20;2.70;;;;;;;1.58;84.00;98127.41;107363;1254;67358;-39
2024/02/06 06:36:52;;;;;;;8.00;2.60;;;;;;;1.56;83.98;98128.48;107268;1257;72464;-39
2024/02/06 06:39:19;;;;;;;6.50;2.50;;;;;;;1.58;84.17;98130.36;107231;1257;61141;-39
2024/02/06 06:41:47;;;;;;;7.10;2.50;;;;;;;1.66;84.07;98128.21;107208;1254;60022;-39
2024/02/06 06:44:15;;;;;;;6.40;2.90;;;;;;;1.72;84.03;98132.26;107274;1254;72946;-40
2024/02/06 06:46:46;;;;;;;8.50;2.70;;;;;;;1.72;84.09;98131.25;107248;1254;68375;-40
2024/02/06 06:49:13;;;;;;;6.50;2.80;;;;;;;1.68;84.10;98123.17;107260;1257;72625;-39
2024/02/06 06:51:45;;;;;;;8.20;2.30;;;;;;;1.66;84.41;98124.02;107277;1254;60930;-40
2024/02/06 06:54:13;;;;;;;6.00;2.10;;;;;;;1.71;84.26;98123.58;107289;1260;59477;-40
2024/02/06 06:56:40;;;;;;;5.60;2.30;;;;;;;1.80;84.03;98120.66;107366;1254;73750;-40
2024/02/06 06:59:08;;;;;;;7.50;2.50;;;;;;;1.83;84.09;98113.00;107270;1254;68905;-40
2024/02/06 07:01:36;;;;;;;10.10;3.00;;;;;;;1.82;84.27;98110.87;107257;1254;72820;-40
2024/02/06 07:04:05;;;;;;;5.40;2.60;;;;;;;1.82;84.37;98111.02;107319;1257;59496;-40
2024/02/06 07:06:33;;;;;;;7.00;3.00;;;;;;;1.84;84.25;98115.62;107271;1254;60125;-40
2024/02/06 07:09:06;;;;;;;8.00;2.70;;;;;;;1.91;84.10;98116.14;107276;1254;73043;-40
2024/02/06 07:11:34;;;;;;;7.90;2.70;;;;;;;1.98;83.88;98112.33;107232;1256;68333;-40
2024/02/06 07:14:02;;;;;;;4.50;2.30;;;;;;;2.03;83.91;98116.01;107233;1257;71675;-40
2024/02/06 07:16:29;;;;;;;5.80;2.50;;;;;;;2.05;83.84;98115.43;107347;1257;60213;-40
2024/02/06 07:18:57;;;;;;;6.50;2.50;;;;;;;2.03;83.75;98114.31;107241;1256;60272;-40
2024/02/06 07:21:25;;;;;;;7.60;2.50;;;;;;;2.02;83.66;98112.30;107265;1257;73070;-40
2024/02/06 07:23:53;;;;;;;6.60;2.40;;;;;;;2.07;83.64;98117.14;107275;1256;67911;-40
2024/02/06 07:26:21;;;;;;;4.80;2.40;;;;;;;2.13;83.34;98112.27;107298;1256;72421;-40
2024/02/06 07:28:48;;;;;;;6.80;2.80;;;;;;;2.13;83.19;98114.41;107297;1260;59509;-40
2024/02/06 07:31:16;;;;;;;7.10;2.60;;;;;;;2.11;83.43;98108.77;107266;1255;60512;-39
2024/02/06 07:33:44;;;;;;;5.60;3.10;;;;;;;2.11;83.60;98108.25;107194;1256;71936;-39
2024/02/06 07:36:15;;;;;;;5.90;2.60;;;;;;;2.14;83.40;98106.20;107259;1257;68369;-39
2024/02/06 07:38:43;;;;;;;5.30;2.50;;;;;;;2.21;83.10;98104.73;107269;1260;73676;-40
2024/02/06 07:41:10;;;;;;;4.80;2.40;;;;;;;2.26;82.80;98106.09;107380;1256;59588;-40
2024/02/06 07:43:38;;;;;;;8.30;2.70;;;;;;;2.22;82.90;98113.55;107359;1260;59746;-39
2024/02/06 07:46:05;;;;;;;6.20;2.60;;;;;;;2.22;83.10;98114.69;107266;1256;73076;-40
2024/02/06 07:48:33;;;;;;;4.50;2.40;;;;;;;2.22;83.03;98114.66;107237;1257;67122;-40
2024/02/06 07:51:02;;;;;;;6.90;2.40;;;;;;;2.19;83.00;98113.36;107257;1257;72663;-39
2024/02/06 07:53:30;;;;;;;7.50;2.60;;;;;;;2.23;82.82;98116.09;107250;1257;60881;-39
2024/02/06 07:55:59;;;;;;;4.30;2.20;;;;;;;2.25;82.76;98109.73;107266;1256;60103;-40
2024/02/06 07:58:26;;;;;;;4.80;2.50;;;;;;;2.28;82.95;98111.71;107251;1258;72070;-40
2024/02/06 08:00:54;;;;;;;5.70;2.70;;;;;;;2.25;82.92;98108.42;107167;1256;68362;-40
2024/02/06 08:03:22;;;;;;;6.00;2.70;;;;;;;2.22;83.01;98106.67;107235;1256;71376;-40
2024/02/06 08:05:50;;;;;;;4.90;2.40;;;;;;;2.25;82.81;98104.14;107150;1257;60864;-39
2024/02/06 08:08:17;;;;;;;4.90;2.80;;;;;;;2.29;82.61;98100.45;107187;1256;60006;-39
2024/02/06 08:10:45;;;;;;;5.70;2.40;;;;;;;2.30;82.62;98101.19;107356;1257;73050;-39
2024/02/06 08:13:13;;;;;;;6.30;2.60;;;;;;;2.27;82.81;98103.70;107196;1260;68680;-40
2024/02/06 08:15:41;;;;;;;4.20;2.40;;;;;;;2.24;82.95;98106.40;107192;1257;72802;-40
2024/02/06 08:18:10;;;;;;;4.90;2.50;;;;;;;2.19;82.97;98106.28;107288;1257;60941;-39
2024/02/06 08:20:38;;;;;;;4.00;2.50;;;;;;;2.23;83.09;98106.40;107330;1255;59481;-40
2024/02/06 08:23:06;;;;;;;4.50;2.60;;;;;;;2.27;83.09;98100.73;107281;1254;72752;-40
2024/02/06 08:25:34;;;;;;;8.90;3.30;;;;;;;2.26;83.26;98101.59;107283;1254;68814;-40
2024/02/06 08:28:05;;;;;;;8.60;3.70;;;;;;;2.26;83.43;98100.36;107284;1255;72667;-39
2024/02/06 08:30:33;;;;;;;5.10;3.40;;;;;;;2.25;83.41;98100.96;107293;1254;61430;-39
2024/02/06 08:33:00;;;;;;;6.70;3.50;;;;;;;2.30;83.35;98098.21;107412;1254;59183;-39
2024/02/06 08:35:29;;;;;;;6.80;3.00;;;;;;;2.37;83.07;98099.32;107466;1259;73090;-38
2024/02/06 08:37:57;;;;;;;16.20;8.30;;;;;;;2.38;83.09;98094.45;107401;1254;68713;-39
2024/02/06 08:40:24;;;;;;;8.90;4.30;;;;;;;2.40;83.55;98101.70;107363;1254;71794;-39
2024/02/06 08:42:52;;;;;;;5.40;2.60;;;;;;;2.42;83.29;98102.70;107403;1257;60075;-38
2024/02/06 08:45:20;;;;;;;3.90;2.00;;;;;;;2.48;83.17;98105.48;107322;1254;59485;-39
2024/02/06 08:47:47;;;;;;;3.90;2.10;;;;;;;2.56;82.89;98103.49;107331;1253;73228;-39
2024/02/06 08:50:15;;;;;;;4.00;2.50;;;;;;;2.58;82.89;98109.08;107389;1254;68537;-39
2024/02/06 08:52:43;;;;;;;4.40;2.30;;;;;;;2.60;82.89;98106.52;107388;1260;72809;-38
2024/02/06 08:55:11;;;;;;;6.50;3.50;;;;;;;2.61;82.73;98108.79;107405;1254;59293;-39
2024/02/06 08:57:38;;;;;;;23.80;12.20;;;;;;;2.64;82.68;98104.27;107497;1254;59503;-39
2024/02/06 09:00:11;;;;;;;9.40;4.10;;;;;;;2.74;82.49;98107.09;106652;1254;1003677;-38
2024/02/06 09:02:39;;;;;;;4.50;2.30;;;;;;;2.83;82.12;98107.14;104402;1254;1003675;-39
2024/02/06 09:05:07;;;;;;;3.50;2.50;;;;;;;2.83;81.85;98106.38;107365;1257;71451;-39
2024/02/06 09:07:35;;;;;;;6.50;3.00;;;;;;;2.84;81.68;98106.84;107396;1254;59606;-39
2024/02/06 09:10:04;;;;;;;8.20;4.30;;;;;;;2.84;81.63;98104.33;107405;1254;60093;-38
2024/02/06 09:12:31;;;;;;;4.10;2.20;;;;;;;2.91;81.52;98099.87;107527;1257;72768;-39
2024/02/06 09:15:01;;;;;;;4.20;2.30;;;;;;;3.00;81.23;98096.29;107304;1254;67652;-39
2024/02/06 09:17:30;;;;;;;4.90;3.10;;;;;;;3.01;81.31;98092.89;107327;1254;71865;-39
2024/02/06 09:19:57;;;;;;;3.70;2.20;;;;;;;3.01;81.16;98090.36;107356;1254;59717;-38
2024/02/06 09:22:25;;;;;;;3.30;2.00;;;;;;;2.99;81.17;98090.61;107351;1254;60152;-39
2024/02/06 09:24:54;;;;;;;4.50;1.80;;;;;;;3.03;81.10;98091.18;107334;1254;73127;-38
2024/02/06 09:27:21;;;;;;;2.80;1.80;;;;;;;3.11;80.98;98090.48;107302;1254;68584;-38
2024/02/06 09:29:49;;;;;;;2.80;1.80;;;;;;;3.16;81.04;98090.38;107278;1254;72809;-39
2024/02/06 09:32:17;;;;;;;2.70;2.00;;;;;;;3.19;81.22;98087.94;107311;1254;59596;-39
2024/02/06 09:34:45;;;;;;;3.40;2.30;;;;;;;3.17;80.83;98087.59;107453;1258;60181;-40
2024/02/06 09:37:13;;;;;;;3.30;2.40;;;;;;;3.18;80.63;98083.08;107380;1259;71976;-40
2024/02/06 09:39:41;;;;;;;3.40;1.80;;;;;;;3.21;80.41;98087.36;107477;1254;69331;-40
2024/02/06 09:42:08;;;;;;;3.00;1.60;;;;;;;3.17;80.49;98084.89;107452;1255;72773;-40
2024/02/06 09:44:36;;;;;;;2.40;1.50;;;;;;;3.12;80.35;98077.56;107265;1255;59711;-39
2024/02/06 09:47:03;;;;;;;2.60;1.30;;;;;;;3.07;80.51;98067.78;107453;1254;59494;-39
2024/02/06 09:49:31;;;;;;;2.20;1.40;;;;;;;3.09;80.55;98067.63;107459;1254;71869;-39
2024/02/06 09:52:00;;;;;;;4.30;1.50;;;;;;;3.13;80.46;98072.23;107454;1254;68896;-39
2024/02/06 09:54:27;;;;;;;3.30;1.30;;;;;;;3.09;80.59;98078.63;106625;1257;1003005;-39
2024/02/06 09:56:55;;;;;;;2.00;1.20;;;;;;;3.01;80.89;98076.61;105730;1260;1003490;-39
2024/02/06 09:59:23;;;;;;;2.00;1.20;;;;;;;2.95;80.89;98076.12;107284;1255;60072;-40
2024/02/06 10:01:51;;;;;;;1.70;1.40;;;;;;;2.93;80.88;98072.21;107279;1257;75161;-39
2024/02/06 10:04:20;;;;;;;1.60;1.20;;;;;;;2.94;81.11;98070.14;107400;1257;68050;-39
2024/02/06 10:06:48;;;;;;;1.80;1.10;;;;;;;2.96;81.55;98064.05;107296;1254;71472;-39
2024/02/06 10:09:17;;;;;;;2.50;1.40;;;;;;;2.95;81.80;98059.96;107254;1259;60522;-39
2024/02/06 10:11:45;;;;;;;1.80;1.00;;;;;;;2.90;81.65;98054.58;107111;1254;60304;-38
2024/02/06 10:14:12;;;;;;;2.40;1.30;;;;;;;2.91;81.59;98051.36;107324;1254;73909;-39
2024/02/06 10:16:41;;;;;;;3.60;1.30;;;;;;;2.93;81.79;98053.51;107121;1254;68840;-40
2024/02/06 10:19:09;;;;;;;3.00;1.50;;;;;;;2.91;81.96;98049.39;107293;1254;70680;-39
2024/02/06 10:21:37;;;;;;;3.40;1.40;;;;;;;2.88;82.18;98050.76;107315;1254;60424;-40
2024/02/06 10:24:05;;;;;;;2.10;1.50;;;;;;;2.86;82.22;98051.77;107123;1258;60223;-39
2024/02/06 10:26:34;;;;;;;3.30;2.10;;;;;;;2.90;82.31;98048.13;107324;1254;74136;-39
2024/02/06 10:29:08;;;;;;;3.10;1.90;;;;;;;2.92;82.00;98044.21;107268;1254;68588;-39
2024/02/06 10:31:39;;;;;;;3.10;1.80;;;;;;;2.90;82.25;98043.08;107481;1254;72931;-40
2024/02/06 10:34:11;;;;;;;2.90;1.40;;;;;;;2.86;82.46;98043.04;107316;1257;60620;-39
2024/02/06 10:36:39;;;;;;;1.40;1.20;;;;;;;2.84;82.65;98048.42;107440;1259;60408;-39
2024/02/06 10:39:10;;;;;;;1.80;1.30;;;;;;;2.87;82.63;98047.90;107296;1254;73975;-40
2024/02/06 10:41:38;;;;;;;2.20;1.50;;;;;;;2.94;82.64;98047.79;107480;1254;68786;-40
2024/02/06 10:44:28;;;;;;;1.80;1.40;;;;;;;2.97;82.89;98050.09;107365;1256;71847;-40
2024/02/06 10:47:03;;;;;;;2.00;1.40;;;;;;;2.97;82.63;98046.50;107484;1254;60498;-39
2024/02/06 10:49:30;;;;;;;3.10;1.50;;;;;;;2.97;82.27;98047.70;107322;1254;60384;-40
2024/02/06 10:52:06;;;;;;;2.10;1.30;;;;;;;3.02;82.27;98055.03;107329;1254;72631;-40
2024/02/06 10:54:34;;;;;;;1.90;1.40;;;;;;;3.04;82.10;98048.36;107309;1254;67346;-39
2024/02/06 10:57:06;;;;;;;1.90;1.40;;;;;;;3.04;82.23;98051.05;107318;1254;72748;-40
2024/02/06 10:59:45;;;;;;;2.10;1.20;;;;;;;3.04;82.57;98050.68;107346;1254;60501;-39
2024/02/06 11:02:23;;;;;;;2.10;1.60;;;;;;;3.05;82.59;98046.25;107458;1254;60450;-40
2024/02/06 11:05:05;;;;;;;2.50;1.40;;;;;;;3.12;82.15;98043.14;107489;1260;73921;-40
2024/02/06 11:07:42;;;;;;;2.30;1.30;;;;;;;3.19;81.99;98043.02;107170;1254;68889;-40
2024/02/06 11:10:10;;;;;;;1.90;1.40;;;;;;;3.20;82.05;98042.88;107342;1254;72802;-40
2024/02/06 11:12:38;;;;;;;3.50;1.60;;;;;;;3.21;82.32;98042.75;107325;1254;60343;-39
2024/02/06 11:15:09;;;;;;;1.60;1.40;;;;;;;3.25;82.50;98043.10;107332;1259;59666;-40
2024/02/06 11:17:37;;;;;;;3.00;2.00;;;;;;;3.35;82.29;98040.47;107200;1254;73016;-40
2024/02/06 11:20:10;;;;;;;2.70;1.80;;;;;;;3.47;81.85;98037.93;107285;1254;68989;-39
2024/02/06 11:22:40;;;;;;;2.20;1.90;;;;;;;3.53;81.55;98036.71;107363;1254;72754;-39
2024/02/06 11:25:09;;;;;;;2.90;2.10;;;;;;;3.48;81.25;98034.61;107344;1254;60364;-40
2024/02/06 11:27:37;;;;;;;3.90;2.10;;;;;;;3.49;81.53;98026.04;107270;1254;60424;-40
2024/02/06 11:30:06;;;;;;;2.60;1.90;;;;;;;3.52;81.21;98033.17;107289;1255;72617;-39
2024/02/06 11:32:34;;;;;;;2.40;1.70;;;;;;;3.61;81.00;98035.29;107458;1254;69158;-40
2024/02/06 11:35:02;;;;;;;2.20;1.90;;;;;;;3.67;80.74;98039.81;107247;1254;72901;-40
2024/02/06 11:37:30;;;;;;;3.10;2.00;;;;;;;3.66;80.14;98033.96;107428;1254;60516;-40
2024/02/06 11:40:04;;;;;;;3.00;1.80;;;;;;;3.59;80.05;98030.66;107290;1254;60514;-40